createdAt,value
2022-11-06T00:01:15.405Z,0.11
2022-11-06T00:03:45.015Z,0.10
2022-11-06T00:06:35.191Z,0.04
2022-11-06T00:09:09.752Z,0.04
2022-11-06T00:11:39.687Z,0.07
2022-11-06T00:14:08.757Z,0.03
2022-11-06T00:16:39.407Z,-0.01
2022-11-06T00:19:08.656Z,-0.02
2022-11-06T00:21:37.084Z,-0.02
2022-11-06T00:24:07.432Z,-0.03
2022-11-06T00:26:36.448Z,-0.04
2022-11-06T00:29:06.050Z,-0.07
2022-11-06T00:31:37.814Z,-0.11
2022-11-06T00:34:07.884Z,-0.14
2022-11-06T00:36:36.540Z,-0.15
2022-11-06T00:39:04.845Z,-0.17
2022-11-06T00:41:33.445Z,-0.19
2022-11-06T00:44:03.240Z,-0.17
2022-11-06T00:46:32.031Z,-0.17
2022-11-06T00:49:00.410Z,-0.19
2022-11-06T00:51:36.082Z,-0.21
2022-11-06T00:54:06.834Z,-0.22
2022-11-06T00:56:35.475Z,-0.23
2022-11-06T00:59:07.001Z,-0.27
2022-11-06T01:01:44.519Z,-0.27
2022-11-06T01:04:21.498Z,-0.27
2022-11-06T01:06:53.429Z,-0.25
2022-11-06T01:09:25.539Z,-0.22
2022-11-06T01:12:12.753Z,-0.23
2022-11-06T01:14:43.750Z,-0.28
2022-11-06T01:17:13.615Z,-0.32
2022-11-06T01:19:42.141Z,-0.36
2022-11-06T01:22:10.786Z,-0.38
2022-11-06T01:24:39.349Z,-0.40
2022-11-06T01:29:57.158Z,-0.38
2022-11-06T01:32:25.620Z,-0.39
2022-11-06T01:34:54.022Z,-0.40
2022-11-06T01:37:22.383Z,-0.43
2022-11-06T01:39:51.120Z,-0.48
2022-11-06T01:42:21.631Z,-0.49
2022-11-06T01:45:21.393Z,-0.50
2022-11-06T01:47:50.288Z,-0.51
2022-11-06T01:50:19.991Z,-0.50
2022-11-06T01:52:50.427Z,-0.48
2022-11-06T01:55:30.839Z,-0.54
2022-11-06T01:58:02.182Z,-0.58
2022-11-06T02:00:31.446Z,-0.59
2022-11-06T02:03:01.157Z,-0.62
2022-11-06T02:05:29.800Z,-0.61
2022-11-06T02:08:00.199Z,-0.60
2022-11-06T02:10:29.909Z,-0.58
2022-11-06T02:13:06.866Z,-0.59
2022-11-06T02:16:13.718Z,-0.58
2022-11-06T02:18:55.374Z,-0.56
2022-11-06T02:21:42.150Z,-0.54
2022-11-06T02:24:41.658Z,-0.55
2022-11-06T02:27:14.305Z,-0.57
2022-11-06T02:29:51.805Z,-0.57
2022-11-06T02:32:40.291Z,-0.56
2022-11-06T02:35:27.031Z,-0.49
2022-11-06T02:38:00.549Z,-0.42
2022-11-06T02:40:33.837Z,-0.35
2022-11-06T02:43:06.836Z,-0.27
2022-11-06T02:45:58.689Z,-0.24
2022-11-06T02:48:33.409Z,-0.16
2022-11-06T02:51:05.280Z,-0.11
2022-11-06T02:53:34.194Z,-0.06
2022-11-06T02:56:20.562Z,0.00
2022-11-06T02:58:54.884Z,0.07
2022-11-06T03:01:47.982Z,0.12
2022-11-06T03:04:27.193Z,0.12
2022-11-06T03:07:12.473Z,0.13
2022-11-06T03:09:40.806Z,0.15
2022-11-06T03:12:38.361Z,0.15
2022-11-06T03:15:21.055Z,0.14
2022-11-06T03:18:10.964Z,0.16
2022-11-06T03:21:01.949Z,0.19
2022-11-06T03:23:49.513Z,0.27
2022-11-06T03:26:31.325Z,0.33
2022-11-06T03:29:08.691Z,0.37
2022-11-06T03:31:47.937Z,0.44
2022-11-06T03:34:26.049Z,0.48
2022-11-06T03:37:09.856Z,0.55
2022-11-06T03:39:43.245Z,0.59
2022-11-06T03:42:18.578Z,0.63
2022-11-06T03:44:52.910Z,0.63
2022-11-06T03:47:23.920Z,0.63
2022-11-06T03:50:00.989Z,0.66
2022-11-06T03:52:39.545Z,0.69
2022-11-06T03:55:11.861Z,0.74
2022-11-06T03:57:47.337Z,0.76
2022-11-06T04:00:17.574Z,0.73
2022-11-06T04:02:51.176Z,0.71
2022-11-06T04:05:25.175Z,0.74
2022-11-06T04:08:15.628Z,0.78
2022-11-06T04:11:06.363Z,0.80
2022-11-06T04:13:56.511Z,0.86
2022-11-06T04:16:27.701Z,0.87
2022-11-06T04:18:56.086Z,0.86
2022-11-06T04:21:45.246Z,0.87
2022-11-06T04:24:53.905Z,0.87
2022-11-06T04:27:34.207Z,0.90
2022-11-06T04:30:07.551Z,0.92
2022-11-06T04:32:49.020Z,0.94
2022-11-06T04:35:25.211Z,0.96
2022-11-06T04:38:23.658Z,1.01
2022-11-06T04:41:12.641Z,1.07
2022-11-06T04:43:59.644Z,1.06
2022-11-06T04:46:33.935Z,1.00
2022-11-06T04:49:05.435Z,0.96
2022-11-06T04:51:38.366Z,0.93
2022-11-06T04:54:10.360Z,0.90
2022-11-06T04:56:44.738Z,0.88
2022-11-06T04:59:17.984Z,0.87
2022-11-06T05:01:47.230Z,0.85
2022-11-06T05:04:15.830Z,0.85
2022-11-06T05:06:44.133Z,0.84
2022-11-06T05:09:12.423Z,0.83
2022-11-06T05:11:40.738Z,0.83
2022-11-06T05:14:09.391Z,0.84
2022-11-06T05:16:37.816Z,0.85
2022-11-06T05:19:06.441Z,0.85
2022-11-06T05:21:53.926Z,0.87
2022-11-06T05:24:22.228Z,0.89
2022-11-06T05:26:54.606Z,0.88
2022-11-06T05:29:26.576Z,0.87
2022-11-06T05:32:31.126Z,0.86
2022-11-06T05:34:59.584Z,0.83
2022-11-06T05:37:28.334Z,0.80
2022-11-06T05:39:56.727Z,0.77
2022-11-06T05:42:25.021Z,0.73
2022-11-06T05:44:53.315Z,0.72
2022-11-06T05:47:21.570Z,0.71
2022-11-06T05:49:49.914Z,0.68
2022-11-06T05:52:18.219Z,0.66
2022-11-06T05:54:46.604Z,0.62
2022-11-06T05:57:14.869Z,0.61
2022-11-06T05:59:43.556Z,0.59
2022-11-06T06:02:12.023Z,0.60
2022-11-06T06:04:40.591Z,0.60
2022-11-06T06:07:09.572Z,0.54
2022-11-06T06:09:37.860Z,0.54
2022-11-06T06:12:06.759Z,0.50
2022-11-06T06:14:34.991Z,0.47
2022-11-06T06:17:03.459Z,0.44
2022-11-06T06:19:31.775Z,0.42
2022-11-06T06:22:00.111Z,0.40
2022-11-06T06:24:28.398Z,0.40
2022-11-06T06:26:56.783Z,0.39
2022-11-06T06:29:25.048Z,0.41
2022-11-06T06:32:08.499Z,0.45
2022-11-06T06:34:36.925Z,0.49
2022-11-06T06:37:05.193Z,0.52
2022-11-06T06:39:33.482Z,0.59
2022-11-06T06:42:01.759Z,0.67
2022-11-06T06:44:30.404Z,0.75
2022-11-06T06:46:58.763Z,0.85
2022-11-06T06:49:27.402Z,0.94
2022-11-06T06:51:55.903Z,1.01
2022-11-06T06:54:24.239Z,1.09
2022-11-06T06:56:52.619Z,1.24
2022-11-06T06:59:20.914Z,1.38
2022-11-06T07:01:49.339Z,1.56
2022-11-06T07:04:17.947Z,1.72
2022-11-06T07:06:46.211Z,1.89
2022-11-06T07:09:14.567Z,2.06
2022-11-06T07:11:42.899Z,2.27
2022-11-06T07:14:11.515Z,2.49
2022-11-06T07:16:39.842Z,2.78
2022-11-06T07:19:08.151Z,3.12
2022-11-06T07:21:36.501Z,3.42
2022-11-06T07:24:05.148Z,4.00
2022-11-06T07:26:33.662Z,4.54
2022-11-06T07:29:02.086Z,5.18
2022-11-06T07:31:31.868Z,6.28
2022-11-06T07:34:00.238Z,7.39
2022-11-06T07:36:28.729Z,8.28
2022-11-06T07:38:58.356Z,9.32
2022-11-06T07:41:26.663Z,10.38
2022-11-06T07:43:55.414Z,11.15
2022-11-06T07:46:23.999Z,12.08
2022-11-06T07:48:52.952Z,12.94
2022-11-06T07:51:21.483Z,13.99
2022-11-06T07:53:50.001Z,15.19
2022-11-06T07:56:19.296Z,16.38
2022-11-06T07:58:47.636Z,17.41
2022-11-06T08:01:18.802Z,18.56
2022-11-06T08:03:47.752Z,19.98
2022-11-06T08:06:16.441Z,21.23
2022-11-06T08:08:44.903Z,22.09
2022-11-06T08:11:14.270Z,22.77
2022-11-06T08:13:42.905Z,23.26
2022-11-06T08:16:14.397Z,23.67
2022-11-06T08:18:43.569Z,24.24
2022-11-06T08:21:12.117Z,25.04
2022-11-06T08:23:40.591Z,25.65
2022-11-06T08:26:09.466Z,25.71
2022-11-06T08:28:38.085Z,25.31
2022-11-06T08:31:08.733Z,23.82
2022-11-06T08:33:39.853Z,21.52
2022-11-06T08:36:10.511Z,19.25
2022-11-06T08:38:39.178Z,17.51
2022-11-06T08:41:12.797Z,16.29
2022-11-06T08:43:41.575Z,15.26
2022-11-06T08:46:11.121Z,14.42
2022-11-06T08:48:39.692Z,13.64
2022-11-06T08:51:08.235Z,13.13
2022-11-06T08:53:38.076Z,12.85
2022-11-06T08:56:07.123Z,12.59
2022-11-06T08:58:36.087Z,12.15
2022-11-06T09:01:04.638Z,11.75
2022-11-06T09:03:33.297Z,11.46
2022-11-06T09:06:01.799Z,11.14
2022-11-06T09:08:30.397Z,10.86
2022-11-06T09:10:59.550Z,10.58
2022-11-06T09:13:28.200Z,10.36
2022-11-06T09:15:56.647Z,10.19
2022-11-06T09:18:25.133Z,9.92
2022-11-06T09:20:57.490Z,9.85
2022-11-06T09:23:25.947Z,9.72
2022-11-06T09:25:54.670Z,9.63
2022-11-06T09:28:23.202Z,9.56
2022-11-06T09:30:51.818Z,9.44
2022-11-06T09:33:21.731Z,9.38
2022-11-06T09:35:50.656Z,9.27
2022-11-06T09:38:19.501Z,9.15
2022-11-06T09:40:58.387Z,9.14
2022-11-06T09:46:46.213Z,9.08
2022-11-06T09:49:32.269Z,9.02
2022-11-06T09:52:17.666Z,8.90
2022-11-06T09:54:56.417Z,8.78
2022-11-06T09:57:56.921Z,8.73
2022-11-06T10:00:26.237Z,8.67
2022-11-06T10:03:16.272Z,8.69
2022-11-06T10:05:47.104Z,8.77
2022-11-06T10:08:27.335Z,8.81
2022-11-06T10:10:56.174Z,8.84
2022-11-06T10:13:33.916Z,8.86
2022-11-06T10:16:11.485Z,8.89
2022-11-06T10:18:46.264Z,8.95
2022-11-06T10:21:20.715Z,8.96
2022-11-06T10:23:55.043Z,8.99
2022-11-06T10:26:42.263Z,9.00
2022-11-06T10:29:36.117Z,9.03
2022-11-06T10:32:24.869Z,9.10
2022-11-06T10:35:19.585Z,9.17
2022-11-06T10:37:58.209Z,9.19
2022-11-06T10:40:33.553Z,9.23
2022-11-06T10:43:07.618Z,9.24
2022-11-06T10:45:39.685Z,9.26
2022-11-06T10:48:27.377Z,9.28
2022-11-06T10:51:20.272Z,9.33
2022-11-06T10:54:09.734Z,9.37
2022-11-06T10:56:53.090Z,9.40
2022-11-06T10:59:22.158Z,9.43
2022-11-06T11:01:51.209Z,9.47
2022-11-06T11:04:20.158Z,9.48
2022-11-06T11:06:48.750Z,9.50
2022-11-06T11:09:34.646Z,9.52
2022-11-06T11:12:03.281Z,9.55
2022-11-06T11:14:32.964Z,9.56
2022-11-06T11:17:08.153Z,9.55
2022-11-06T11:19:46.355Z,9.58
2022-11-06T11:22:16.871Z,9.62
2022-11-06T11:25:03.663Z,9.64
2022-11-06T11:27:45.895Z,9.66
2022-11-06T11:30:24.807Z,9.67
2022-11-06T11:33:14.063Z,9.71
2022-11-06T11:35:50.197Z,9.78
2022-11-06T11:38:22.253Z,9.81
2022-11-06T11:40:51.912Z,9.87
2022-11-06T11:43:26.488Z,9.89
2022-11-06T11:46:10.307Z,9.92
2022-11-06T11:48:48.681Z,9.92
2022-11-06T11:51:28.985Z,9.91
2022-11-06T11:54:13.795Z,9.96
2022-11-06T11:57:05.631Z,10.00
2022-11-06T11:59:57.933Z,10.02
2022-11-06T12:02:29.977Z,10.04
2022-11-06T12:05:09.995Z,10.05
2022-11-06T12:07:49.517Z,10.08
2022-11-06T12:10:44.644Z,10.13
2022-11-06T12:13:14.426Z,10.18
2022-11-06T12:15:46.062Z,10.21
2022-11-06T12:18:35.581Z,10.22
2022-11-06T12:21:07.500Z,10.14
2022-11-06T12:24:03.554Z,10.09
2022-11-06T12:26:54.682Z,10.05
2022-11-06T12:29:37.737Z,10.00
2022-11-06T12:32:24.235Z,9.98
2022-11-06T12:35:03.936Z,10.01
2022-11-06T12:37:53.748Z,10.06
2022-11-06T12:40:48.003Z,10.10
2022-11-06T12:43:27.509Z,10.12
2022-11-06T12:46:08.119Z,10.16
2022-11-06T12:49:07.692Z,10.21
2022-11-06T12:52:09.863Z,10.21
2022-11-06T12:55:02.670Z,10.21
2022-11-06T12:57:43.802Z,10.18
2022-11-06T13:00:16.311Z,10.18
2022-11-06T13:02:57.771Z,10.20
2022-11-06T13:05:41.359Z,10.18
2022-11-06T13:24:13.706Z,10.11
2022-11-06T13:26:55.156Z,10.11
2022-11-06T13:29:26.107Z,10.09
2022-11-06T13:31:59.481Z,10.08
2022-11-06T13:34:35.240Z,10.05
2022-11-06T13:37:12.057Z,10.05
2022-11-06T13:39:50.730Z,10.06
2022-11-06T13:42:41.944Z,10.02
2022-11-06T13:45:16.997Z,9.98
2022-11-06T13:48:28.639Z,9.90
2022-11-06T13:51:14.575Z,9.76
2022-11-06T13:53:53.027Z,9.68
2022-11-06T13:56:43.938Z,9.64
2022-11-06T13:59:35.292Z,9.61
2022-11-06T14:02:38.112Z,9.58
2022-11-06T14:05:46.663Z,9.54
2022-11-06T14:08:32.822Z,9.49
2022-11-06T14:11:06.017Z,9.44
2022-11-06T14:13:36.247Z,9.40
2022-11-06T14:16:14.776Z,9.36
2022-11-06T14:18:54.330Z,9.31
2022-11-06T14:21:26.699Z,9.26
2022-11-06T14:24:28.193Z,9.21
2022-11-06T14:26:58.411Z,9.15
2022-11-06T14:29:27.277Z,9.09
2022-11-06T14:32:09.860Z,9.05
2022-11-06T14:34:43.319Z,8.99
2022-11-06T14:37:18.342Z,8.93
2022-11-06T14:39:58.150Z,8.87
2022-11-06T14:42:40.245Z,8.81
2022-11-06T14:45:22.387Z,8.74
2022-11-06T14:47:57.289Z,8.65
2022-11-06T14:50:36.541Z,8.57
2022-11-06T14:53:25.944Z,8.47
2022-11-06T14:56:02.873Z,8.38
2022-11-06T14:58:36.970Z,8.31
2022-11-06T15:01:12.776Z,8.23
2022-11-06T15:03:41.371Z,8.14
2022-11-06T15:06:17.370Z,8.06
2022-11-06T15:08:46.320Z,7.97
2022-11-06T15:11:30.289Z,7.87
2022-11-06T15:14:04.566Z,7.77
2022-11-06T15:16:44.704Z,7.67
2022-11-06T15:19:28.317Z,7.57
2022-11-06T15:22:05.964Z,7.48
2022-11-06T15:25:04.902Z,7.45
2022-11-06T15:27:45.684Z,7.42
2022-11-06T15:30:18.176Z,7.32
2022-11-06T15:32:52.489Z,7.22
2022-11-06T15:35:33.783Z,7.11
2022-11-06T15:38:14.013Z,7.00
2022-11-06T15:40:44.722Z,6.89
2022-11-06T15:43:31.457Z,6.81
2022-11-06T15:46:22.941Z,6.71
2022-11-06T15:49:13.409Z,6.62
2022-11-06T15:51:52.923Z,6.51
2022-11-06T15:54:38.622Z,6.44
2022-11-06T15:57:25.591Z,6.36
2022-11-06T16:00:13.147Z,6.32
2022-11-06T16:02:52.854Z,6.28
2022-11-06T16:05:22.731Z,6.23
2022-11-06T16:07:52.439Z,6.21
2022-11-06T16:10:24.450Z,6.19
2022-11-06T16:12:55.203Z,6.17
2022-11-06T16:16:01.959Z,6.15
2022-11-06T16:18:41.370Z,6.11
2022-11-06T16:21:27.755Z,6.07
2022-11-06T16:24:05.429Z,6.03
2022-11-06T16:26:38.238Z,5.99
2022-11-06T16:29:17.025Z,5.99
2022-11-06T16:31:48.720Z,5.99
2022-11-06T16:34:22.370Z,6.00
2022-11-06T16:37:08.468Z,5.97
2022-11-06T16:39:49.707Z,5.91
2022-11-06T16:42:29.840Z,5.87
2022-11-06T16:45:21.288Z,5.84
2022-11-06T16:48:27.335Z,5.81
2022-11-06T16:51:02.854Z,5.79
2022-11-06T16:53:49.193Z,5.79
2022-11-06T16:56:24.978Z,5.77
2022-11-06T16:58:59.326Z,5.74
2022-11-06T17:01:38.240Z,5.71
2022-11-06T17:04:21.498Z,5.67
2022-11-06T17:06:53.414Z,5.64
2022-11-06T17:09:34.819Z,5.61
2022-11-06T17:12:12.000Z,5.61
2022-11-06T17:14:45.469Z,5.60
2022-11-06T17:17:26.699Z,5.59
2022-11-06T17:19:59.260Z,5.55
2022-11-06T17:22:29.774Z,5.55
2022-11-06T17:25:00.235Z,5.56
2022-11-06T17:27:29.943Z,5.53
2022-11-06T17:29:59.314Z,5.53
2022-11-06T17:32:28.983Z,5.53
2022-11-06T17:34:57.973Z,5.48
2022-11-06T17:37:27.726Z,5.46
2022-11-06T17:39:56.845Z,5.44
2022-11-06T17:42:26.857Z,5.44
2022-11-06T17:44:57.123Z,5.42
2022-11-06T17:47:27.940Z,5.43
2022-11-06T17:49:57.357Z,5.40
2022-11-06T17:52:26.697Z,5.37
2022-11-06T17:54:58.330Z,5.33
2022-11-06T17:57:29.006Z,5.27
2022-11-06T17:59:58.970Z,5.22
2022-11-06T18:02:54.991Z,5.19
2022-11-06T18:05:21.126Z,5.14
2022-11-06T18:07:51.416Z,5.11
2022-11-06T18:10:27.434Z,5.06
2022-11-06T18:13:03.693Z,5.03
2022-11-06T18:15:39.082Z,5.00
2022-11-06T18:18:11.959Z,4.98
2022-11-06T18:20:47.227Z,4.95
2022-11-06T18:23:17.921Z,4.91
2022-11-06T18:25:58.646Z,4.88
2022-11-06T18:28:28.539Z,4.86
2022-11-06T18:30:59.950Z,4.82
2022-11-06T18:33:30.948Z,4.78
2022-11-06T18:36:09.893Z,4.76
2022-11-06T18:38:41.062Z,4.75
2022-11-06T18:41:13.546Z,4.73
2022-11-06T18:43:44.776Z,4.68
2022-11-06T18:46:20.098Z,4.65
2022-11-06T18:48:50.880Z,4.62
2022-11-06T18:51:34.656Z,4.57
2022-11-06T18:54:08.052Z,4.56
2022-11-06T18:56:39.608Z,4.53
2022-11-06T18:59:20.322Z,4.49
2022-11-06T19:01:50.537Z,4.45
2022-11-06T19:04:19.991Z,4.43
2022-11-06T19:06:51.150Z,4.38
2022-11-06T19:09:20.944Z,4.35
2022-11-06T19:11:51.762Z,4.31
2022-11-06T19:14:24.265Z,4.26
2022-11-06T19:16:54.452Z,4.25
2022-11-06T19:19:25.709Z,4.22
2022-11-06T19:21:57.869Z,4.19
2022-11-06T19:24:29.394Z,4.16
2022-11-06T19:26:58.936Z,4.13
2022-11-06T19:29:28.873Z,4.11
2022-11-06T19:32:02.809Z,4.07
2022-11-06T19:34:39.159Z,4.05
2022-11-06T19:37:08.495Z,4.04
2022-11-06T19:39:38.848Z,4.04
2022-11-06T19:42:11.409Z,4.03
2022-11-06T19:44:43.627Z,4.03
2022-11-06T19:47:14.064Z,4.02
2022-11-06T19:49:43.259Z,4.00
2022-11-06T19:52:42.746Z,4.00
2022-11-06T19:55:26.580Z,3.98
2022-11-06T19:57:52.220Z,3.95
2022-11-06T20:00:23.419Z,3.91
2022-11-06T20:02:56.298Z,3.87
2022-11-06T20:05:30.179Z,3.87
2022-11-06T20:08:00.113Z,3.91
2022-11-06T20:10:30.383Z,3.90
2022-11-06T20:13:00.663Z,3.88
2022-11-06T20:15:30.952Z,3.87
2022-11-06T20:18:00.591Z,3.84
2022-11-06T20:20:35.997Z,3.82
2022-11-06T20:23:07.197Z,3.82
2022-11-06T20:25:36.929Z,3.83
2022-11-06T20:28:07.186Z,3.81
2022-11-06T20:30:36.924Z,3.79
2022-11-06T20:33:11.819Z,3.78
2022-11-06T20:35:42.682Z,3.78
2022-11-06T20:38:13.227Z,3.79
2022-11-06T20:40:46.143Z,3.79
2022-11-06T20:43:16.122Z,3.78
2022-11-06T20:45:46.031Z,3.75
2022-11-06T20:48:16.587Z,3.73
2022-11-06T20:50:58.468Z,3.73
2022-11-06T20:53:28.894Z,3.75
2022-11-06T20:56:08.047Z,3.76
2022-11-06T20:58:38.041Z,3.76
2022-11-06T21:01:12.651Z,3.74
2022-11-06T21:03:42.721Z,3.74
2022-11-06T21:06:13.631Z,3.75
2022-11-06T21:08:45.419Z,3.76
2022-11-06T21:11:18.494Z,3.75
2022-11-06T21:13:49.952Z,3.72
2022-11-06T21:16:24.841Z,3.71
2022-11-06T21:18:54.886Z,3.70
2022-11-06T21:21:27.021Z,3.70
2022-11-06T21:23:56.983Z,3.68
2022-11-06T21:26:31.236Z,3.67
2022-11-06T21:29:02.578Z,3.66
2022-11-06T21:31:32.800Z,3.67
2022-11-06T21:34:05.975Z,3.67
2022-11-06T21:36:37.336Z,3.65
2022-11-06T21:39:09.144Z,3.62
2022-11-06T21:41:38.946Z,3.60
2022-11-06T21:44:09.043Z,3.61
2022-11-06T21:46:42.524Z,3.58
2022-11-06T21:49:14.436Z,3.54
2022-11-06T21:51:43.208Z,3.51
2022-11-06T21:54:31.686Z,3.47
2022-11-06T21:57:01.343Z,3.43
2022-11-06T21:59:31.125Z,3.38
2022-11-06T22:01:59.781Z,3.35
2022-11-06T22:04:28.548Z,3.30
2022-11-06T22:06:57.164Z,3.25
2022-11-06T22:09:26.428Z,3.19
2022-11-06T22:11:55.070Z,3.15
2022-11-06T22:14:23.817Z,3.11
2022-11-06T22:16:52.723Z,3.09
2022-11-06T22:19:21.340Z,3.07
2022-11-06T22:21:49.825Z,3.06
2022-11-06T22:24:18.335Z,3.07
2022-11-06T22:26:47.107Z,3.05
2022-11-06T22:29:15.770Z,3.05
2022-11-06T22:31:44.198Z,3.02
2022-11-06T22:34:13.789Z,3.02
2022-11-06T22:36:42.454Z,3.02
2022-11-06T22:39:11.874Z,3.00
2022-11-06T22:41:41.079Z,3.00
2022-11-06T22:44:10.360Z,3.00
2022-11-06T22:46:39.230Z,3.01
2022-11-06T22:49:07.933Z,2.99
2022-11-06T22:51:36.454Z,2.97
2022-11-06T22:54:05.393Z,2.97
2022-11-06T22:56:34.001Z,2.96
2022-11-06T22:59:05.703Z,2.94
2022-11-06T23:01:40.351Z,2.92
2022-11-06T23:04:15.396Z,2.90
2022-11-06T23:06:45.610Z,2.92
2022-11-06T23:09:14.891Z,2.93
2022-11-06T23:11:46.367Z,2.92
2022-11-06T23:14:14.974Z,2.91
2022-11-06T23:16:59.379Z,2.90
2022-11-06T23:19:29.426Z,2.90
2022-11-06T23:22:17.081Z,2.87
2022-11-06T23:24:46.168Z,2.84
2022-11-06T23:27:14.870Z,2.81
2022-11-06T23:29:43.411Z,2.81
2022-11-06T23:32:12.094Z,2.81
2022-11-06T23:34:40.612Z,2.82
2022-11-06T23:37:09.498Z,2.83
2022-11-06T23:39:38.277Z,2.86
2022-11-06T23:42:06.748Z,2.88
2022-11-06T23:44:54.023Z,2.89
2022-11-06T23:47:22.923Z,2.89
2022-11-06T23:49:51.447Z,2.91
2022-11-06T23:52:20.004Z,2.90
2022-11-06T23:54:48.709Z,2.90
2022-11-06T23:57:17.786Z,2.91
2022-11-06T23:59:46.349Z,2.94
